Nearby METAR Reports


NZAA - Auckland Intl Ar, New Zealand
Distance from station: NW 162km
Updated: 20/12/2018 02:00
Rain, Overcast
Rain, Overcast
 Wind from NNW
Wind: NNW 19 km/h
Temperature: 18°C
Dew Point: 17°C
Humidity: 94%
Barometer: 1004 hPa
Summary: Rain
Clouds: Overcast
Visibility: 10 km
Cloud details: Few Clouds 1524 m
Overcast 2743 m
2018/12/19 13:00 NZAA 191300Z AUTO 33010KT 9999 RA FEW050/// OVC090/// 18/17 Q1004 TEMPO -RA TEMPO 8000 RA
NZWN - Wellington Intl, New Zealand
Distance from station: SSW 357km
Updated: 20/12/2018 02:00
Mostly cloudy
Mostly cloudy
 Wind from S
Wind: S 37 km/h
Temperature: 15°C
Dew Point: 14°C
Humidity: 94%
Barometer: 1002 hPa
Clouds: Mostly cloudy
Visibility: 9 km
Cloud details: Few Clouds 244 m
Mostly cloudy 427 m
2018/12/19 13:00 NZWN 191300Z AUTO 19020KT 9000 FEW008/// BKN014/// 15/14 Q1002 BECMG SCT008 BKN016
 
NZCH - Christchurch Int, New Zealand
Distance from station: SSW 647km
Updated: 20/12/2018 02:00
Light rain, Mostly cloudy
Light rain, Mostly cloudy
 Wind from WSW
Wind: WSW 7 km/h
Temperature: 10°C
Wind Chill: 9°C
Dew Point: 9°C
Humidity: 94%
Barometer: 1008 hPa
Summary: Light rain
Clouds: Mostly cloudy
Visibility: 10 km
Cloud details: Mostly cloudy 244 m
Mostly cloudy 792 m
2018/12/19 13:00 NZCH 191300Z AUTO 24004KT 9999 -RA BKN008/// BKN026/// 10/09 Q1008 TEMPO SCT012 BKN020
YSNF - Norfolk Island A, Australia
Distance from station: NW 1258km
Updated: 20/12/2018 02:00
Clear
Clear
 Wind from WNW
Wind: WNW 13 km/h
Temperature: 19°C
Dew Point: 15°C
Humidity: 78%
Barometer: 1014 hPa
Clouds: Clear
Visibility: 10 km
2018/12/19 13:00 YSNF 191300Z AUTO 29007KT 9999 // NCD 19/15 Q1014